sensor_id;sensor_type;location;lat;lon;timestamp;P1;durP1;ratioP1;P2;durP2;ratioP2
13445;SDS011;6795;51.232;3.764;2022-12-07T00:02:01;5.80;;;2.87;;
13445;SDS011;6795;51.232;3.764;2022-12-07T00:04:49;10.63;;;2.93;;
13445;SDS011;6795;51.232;3.764;2022-12-07T00:07:49;8.27;;;2.93;;
13445;SDS011;6795;51.232;3.764;2022-12-07T00:10:47;9.13;;;3.03;;
13445;SDS011;6795;51.232;3.764;2022-12-07T00:13:34;9.53;;;3.67;;
13445;SDS011;6795;51.232;3.764;2022-12-07T00:16:23;6.63;;;2.80;;
13445;SDS011;6795;51.232;3.764;2022-12-07T00:19:30;13.03;;;3.23;;
13445;SDS011;6795;51.232;3.764;2022-12-07T00:22:16;13.33;;;3.23;;
13445;SDS011;6795;51.232;3.764;2022-12-07T00:25:06;8.57;;;3.10;;
13445;SDS011;6795;51.232;3.764;2022-12-07T00:28:05;9.20;;;3.67;;
13445;SDS011;6795;51.232;3.764;2022-12-07T00:30:59;13.43;;;3.50;;
13445;SDS011;6795;51.232;3.764;2022-12-07T00:33:46;7.20;;;3.63;;
13445;SDS011;6795;51.232;3.764;2022-12-07T00:36:42;11.27;;;5.00;;
13445;SDS011;6795;51.232;3.764;2022-12-07T00:39:11;13.43;;;6.50;;
13445;SDS011;6795;51.232;3.764;2022-12-07T00:41:39;12.57;;;5.03;;
13445;SDS011;6795;51.232;3.764;2022-12-07T00:44:08;13.03;;;5.47;;
13445;SDS011;6795;51.232;3.764;2022-12-07T00:46:36;9.07;;;4.37;;
13445;SDS011;6795;51.232;3.764;2022-12-07T00:49:05;12.90;;;4.67;;
13445;SDS011;6795;51.232;3.764;2022-12-07T00:51:33;8.10;;;4.33;;
13445;SDS011;6795;51.232;3.764;2022-12-07T00:54:03;13.57;;;5.50;;
13445;SDS011;6795;51.232;3.764;2022-12-07T00:56:31;7.47;;;3.97;;
13445;SDS011;6795;51.232;3.764;2022-12-07T00:59:00;11.73;;;4.03;;
13445;SDS011;6795;51.232;3.764;2022-12-07T01:01:31;10.30;;;3.43;;
13445;SDS011;6795;51.232;3.764;2022-12-07T01:04:02;12.33;;;4.53;;
13445;SDS011;6795;51.232;3.764;2022-12-07T01:06:34;12.60;;;4.20;;
13445;SDS011;6795;51.232;3.764;2022-12-07T01:09:04;11.07;;;4.17;;
13445;SDS011;6795;51.232;3.764;2022-12-07T01:11:32;8.20;;;4.00;;
13445;SDS011;6795;51.232;3.764;2022-12-07T01:14:01;17.33;;;4.27;;
13445;SDS011;6795;51.232;3.764;2022-12-07T01:16:30;8.13;;;3.70;;
13445;SDS011;6795;51.232;3.764;2022-12-07T01:19:00;9.90;;;3.70;;
13445;SDS011;6795;51.232;3.764;2022-12-07T01:21:32;16.50;;;3.93;;
13445;SDS011;6795;51.232;3.764;2022-12-07T01:24:06;12.30;;;3.93;;
13445;SDS011;6795;51.232;3.764;2022-12-07T01:26:37;11.20;;;3.77;;
13445;SDS011;6795;51.232;3.764;2022-12-07T01:29:05;6.50;;;3.73;;
13445;SDS011;6795;51.232;3.764;2022-12-07T01:31:34;10.87;;;4.20;;
13445;SDS011;6795;51.232;3.764;2022-12-07T01:34:02;17.67;;;5.90;;
13445;SDS011;6795;51.232;3.764;2022-12-07T01:36:31;15.33;;;7.50;;
13445;SDS011;6795;51.232;3.764;2022-12-07T01:39:02;17.80;;;8.03;;
13445;SDS011;6795;51.232;3.764;2022-12-07T01:41:34;23.73;;;10.40;;
13445;SDS011;6795;51.232;3.764;2022-12-07T01:44:18;20.23;;;9.80;;
13445;SDS011;6795;51.232;3.764;2022-12-07T01:46:49;23.47;;;10.70;;
13445;SDS011;6795;51.232;3.764;2022-12-07T01:49:21;18.20;;;10.63;;
13445;SDS011;6795;51.232;3.764;2022-12-07T01:51:57;19.17;;;10.43;;
13445;SDS011;6795;51.232;3.764;2022-12-07T01:54:31;20.40;;;11.30;;
13445;SDS011;6795;51.232;3.764;2022-12-07T01:57:02;21.63;;;9.87;;
13445;SDS011;6795;51.232;3.764;2022-12-07T01:59:32;26.17;;;11.80;;
13445;SDS011;6795;51.232;3.764;2022-12-07T02:02:02;27.27;;;11.60;;
13445;SDS011;6795;51.232;3.764;2022-12-07T02:04:38;24.17;;;11.77;;
13445;SDS011;6795;51.232;3.764;2022-12-07T02:07:06;18.67;;;12.30;;
13445;SDS011;6795;51.232;3.764;2022-12-07T02:09:35;22.73;;;12.17;;
13445;SDS011;6795;51.232;3.764;2022-12-07T02:12:05;27.27;;;13.33;;
13445;SDS011;6795;51.232;3.764;2022-12-07T02:14:33;22.93;;;13.00;;
13445;SDS011;6795;51.232;3.764;2022-12-07T02:17:05;20.70;;;13.43;;
13445;SDS011;6795;51.232;3.764;2022-12-07T02:19:45;27.30;;;14.50;;
13445;SDS011;6795;51.232;3.764;2022-12-07T02:22:51;27.37;;;14.70;;
13445;SDS011;6795;51.232;3.764;2022-12-07T02:25:41;27.57;;;15.30;;
13445;SDS011;6795;51.232;3.764;2022-12-07T02:28:27;25.33;;;14.67;;
13445;SDS011;6795;51.232;3.764;2022-12-07T02:31:01;20.50;;;15.10;;
13445;SDS011;6795;51.232;3.764;2022-12-07T02:33:36;30.37;;;17.07;;
13445;SDS011;6795;51.232;3.764;2022-12-07T02:36:10;26.83;;;14.77;;
13445;SDS011;6795;51.232;3.764;2022-12-07T02:38:43;27.50;;;15.13;;
13445;SDS011;6795;51.232;3.764;2022-12-07T02:41:16;26.03;;;15.63;;
13445;SDS011;6795;51.232;3.764;2022-12-07T02:43:50;35.27;;;17.50;;
13445;SDS011;6795;51.232;3.764;2022-12-07T02:46:23;28.97;;;16.33;;
13445;SDS011;6795;51.232;3.764;2022-12-07T02:48:56;28.70;;;16.20;;
13445;SDS011;6795;51.232;3.764;2022-12-07T02:51:29;30.57;;;16.93;;
13445;SDS011;6795;51.232;3.764;2022-12-07T02:53:58;34.03;;;17.23;;
13445;SDS011;6795;51.232;3.764;2022-12-07T02:56:30;31.13;;;16.67;;
13445;SDS011;6795;51.232;3.764;2022-12-07T02:59:09;26.47;;;16.43;;
13445;SDS011;6795;51.232;3.764;2022-12-07T03:01:50;26.30;;;15.93;;
13445;SDS011;6795;51.232;3.764;2022-12-07T03:04:27;31.03;;;17.00;;
13445;SDS011;6795;51.232;3.764;2022-12-07T03:09:57;29.77;;;16.07;;
13445;SDS011;6795;51.232;3.764;2022-12-07T03:12:32;26.00;;;15.50;;
13445;SDS011;6795;51.232;3.764;2022-12-07T03:15:07;29.57;;;14.70;;
13445;SDS011;6795;51.232;3.764;2022-12-07T03:17:41;32.27;;;15.00;;
13445;SDS011;6795;51.232;3.764;2022-12-07T03:20:11;24.60;;;14.90;;
13445;SDS011;6795;51.232;3.764;2022-12-07T03:22:45;29.63;;;15.50;;
13445;SDS011;6795;51.232;3.764;2022-12-07T03:25:16;26.47;;;15.90;;
13445;SDS011;6795;51.232;3.764;2022-12-07T03:27:46;25.77;;;14.43;;
13445;SDS011;6795;51.232;3.764;2022-12-07T03:30:20;26.50;;;14.50;;
13445;SDS011;6795;51.232;3.764;2022-12-07T03:32:52;38.97;;;15.13;;
13445;SDS011;6795;51.232;3.764;2022-12-07T03:35:26;25.67;;;15.33;;
13445;SDS011;6795;51.232;3.764;2022-12-07T03:37:59;24.87;;;14.93;;
13445;SDS011;6795;51.232;3.764;2022-12-07T03:40:34;20.70;;;12.80;;
13445;SDS011;6795;51.232;3.764;2022-12-07T03:43:07;22.30;;;12.67;;
13445;SDS011;6795;51.232;3.764;2022-12-07T03:45:37;17.00;;;11.80;;
13445;SDS011;6795;51.232;3.764;2022-12-07T03:48:11;24.77;;;11.73;;
13445;SDS011;6795;51.232;3.764;2022-12-07T03:50:48;27.43;;;12.83;;
13445;SDS011;6795;51.232;3.764;2022-12-07T03:53:22;22.73;;;13.13;;
13445;SDS011;6795;51.232;3.764;2022-12-07T03:55:56;21.33;;;12.67;;
13445;SDS011;6795;51.232;3.764;2022-12-07T03:58:26;24.20;;;13.87;;
13445;SDS011;6795;51.232;3.764;2022-12-07T04:00:55;25.53;;;16.10;;
13445;SDS011;6795;51.232;3.764;2022-12-07T04:03:25;23.10;;;14.40;;
13445;SDS011;6795;51.232;3.764;2022-12-07T04:05:53;19.60;;;12.47;;
13445;SDS011;6795;51.232;3.764;2022-12-07T04:08:22;23.37;;;13.47;;
13445;SDS011;6795;51.232;3.764;2022-12-07T04:10:50;20.73;;;11.73;;
13445;SDS011;6795;51.232;3.764;2022-12-07T04:13:19;29.03;;;13.10;;
13445;SDS011;6795;51.232;3.764;2022-12-07T04:15:47;22.23;;;10.27;;
13445;SDS011;6795;51.232;3.764;2022-12-07T04:18:16;16.90;;;10.73;;
13445;SDS011;6795;51.232;3.764;2022-12-07T04:20:46;24.50;;;11.77;;
13445;SDS011;6795;51.232;3.764;2022-12-07T04:23:15;19.97;;;9.23;;
13445;SDS011;6795;51.232;3.764;2022-12-07T04:25:43;26.57;;;12.87;;
13445;SDS011;6795;51.232;3.764;2022-12-07T04:28:11;21.73;;;12.37;;
13445;SDS011;6795;51.232;3.764;2022-12-07T04:30:40;17.47;;;9.43;;
13445;SDS011;6795;51.232;3.764;2022-12-07T04:33:08;13.80;;;7.10;;
13445;SDS011;6795;51.232;3.764;2022-12-07T04:35:37;12.30;;;5.37;;
13445;SDS011;6795;51.232;3.764;2022-12-07T04:38:06;9.33;;;3.17;;
13445;SDS011;6795;51.232;3.764;2022-12-07T04:40:35;8.30;;;2.07;;
13445;SDS011;6795;51.232;3.764;2022-12-07T04:43:03;10.20;;;2.43;;
13445;SDS011;6795;51.232;3.764;2022-12-07T04:45:32;11.00;;;1.23;;
13445;SDS011;6795;51.232;3.764;2022-12-07T04:48:00;14.27;;;0.93;;
13445;SDS011;6795;51.232;3.764;2022-12-07T04:50:29;10.17;;;1.00;;
13445;SDS011;6795;51.232;3.764;2022-12-07T04:52:57;16.07;;;3.23;;
13445;SDS011;6795;51.232;3.764;2022-12-07T04:55:27;11.20;;;4.53;;
13445;SDS011;6795;51.232;3.764;2022-12-07T04:57:55;15.43;;;3.87;;
13445;SDS011;6795;51.232;3.764;2022-12-07T05:00:23;11.87;;;2.40;;
13445;SDS011;6795;51.232;3.764;2022-12-07T05:02:52;11.77;;;2.40;;
13445;SDS011;6795;51.232;3.764;2022-12-07T05:05:20;9.73;;;1.97;;
13445;SDS011;6795;51.232;3.764;2022-12-07T05:07:49;10.87;;;1.90;;
13445;SDS011;6795;51.232;3.764;2022-12-07T05:10:17;14.40;;;3.97;;
13445;SDS011;6795;51.232;3.764;2022-12-07T05:12:47;69.37;;;32.93;;
13445;SDS011;6795;51.232;3.764;2022-12-07T05:15:15;15.50;;;5.33;;
13445;SDS011;6795;51.232;3.764;2022-12-07T05:17:44;23.70;;;7.07;;
13445;SDS011;6795;51.232;3.764;2022-12-07T05:20:12;84.80;;;29.90;;
13445;SDS011;6795;51.232;3.764;2022-12-07T05:22:41;278.27;;;92.80;;
13445;SDS011;6795;51.232;3.764;2022-12-07T05:25:10;44.60;;;11.87;;
13445;SDS011;6795;51.232;3.764;2022-12-07T05:27:38;31.30;;;11.17;;
13445;SDS011;6795;51.232;3.764;2022-12-07T05:30:08;15.80;;;6.23;;
13445;SDS011;6795;51.232;3.764;2022-12-07T05:32:37;13.20;;;5.60;;
13445;SDS011;6795;51.232;3.764;2022-12-07T05:35:06;16.90;;;7.87;;
13445;SDS011;6795;51.232;3.764;2022-12-07T05:37:35;22.07;;;8.67;;
13445;SDS011;6795;51.232;3.764;2022-12-07T05:40:03;37.97;;;19.10;;
13445;SDS011;6795;51.232;3.764;2022-12-07T05:42:33;27.10;;;11.13;;
13445;SDS011;6795;51.232;3.764;2022-12-07T05:45:01;18.03;;;8.37;;
13445;SDS011;6795;51.232;3.764;2022-12-07T05:47:31;17.87;;;6.73;;
13445;SDS011;6795;51.232;3.764;2022-12-07T05:49:59;17.97;;;6.13;;
13445;SDS011;6795;51.232;3.764;2022-12-07T05:52:28;13.37;;;4.40;;
13445;SDS011;6795;51.232;3.764;2022-12-07T05:54:57;18.37;;;5.90;;
13445;SDS011;6795;51.232;3.764;2022-12-07T05:57:25;12.33;;;3.73;;
13445;SDS011;6795;51.232;3.764;2022-12-07T05:59:54;15.03;;;5.53;;
13445;SDS011;6795;51.232;3.764;2022-12-07T06:02:22;35.20;;;14.10;;
13445;SDS011;6795;51.232;3.764;2022-12-07T06:04:51;68.97;;;25.40;;
13445;SDS011;6795;51.232;3.764;2022-12-07T06:07:20;84.00;;;26.10;;
13445;SDS011;6795;51.232;3.764;2022-12-07T06:09:48;25.83;;;10.30;;
13445;SDS011;6795;51.232;3.764;2022-12-07T06:12:17;15.60;;;8.63;;
13445;SDS011;6795;51.232;3.764;2022-12-07T06:15:05;18.13;;;9.23;;
13445;SDS011;6795;51.232;3.764;2022-12-07T06:17:34;24.30;;;11.83;;
13445;SDS011;6795;51.232;3.764;2022-12-07T06:20:04;78.40;;;28.17;;
13445;SDS011;6795;51.232;3.764;2022-12-07T06:22:33;111.90;;;33.97;;
13445;SDS011;6795;51.232;3.764;2022-12-07T06:25:02;33.23;;;15.07;;
13445;SDS011;6795;51.232;3.764;2022-12-07T06:27:34;21.60;;;13.97;;
13445;SDS011;6795;51.232;3.764;2022-12-07T06:30:03;27.23;;;12.70;;
13445;SDS011;6795;51.232;3.764;2022-12-07T06:32:33;25.50;;;12.87;;
13445;SDS011;6795;51.232;3.764;2022-12-07T06:35:01;58.93;;;24.00;;
13445;SDS011;6795;51.232;3.764;2022-12-07T06:37:31;58.67;;;22.70;;
13445;SDS011;6795;51.232;3.764;2022-12-07T06:40:00;35.73;;;17.60;;
13445;SDS011;6795;51.232;3.764;2022-12-07T06:42:28;57.60;;;19.50;;
13445;SDS011;6795;51.232;3.764;2022-12-07T06:44:57;32.57;;;15.80;;
13445;SDS011;6795;51.232;3.764;2022-12-07T06:47:26;74.40;;;25.60;;
13445;SDS011;6795;51.232;3.764;2022-12-07T06:50:09;52.50;;;19.77;;
13445;SDS011;6795;51.232;3.764;2022-12-07T06:52:37;33.73;;;15.57;;
13445;SDS011;6795;51.232;3.764;2022-12-07T06:55:06;32.47;;;13.53;;
13445;SDS011;6795;51.232;3.764;2022-12-07T06:57:35;26.17;;;11.47;;
13445;SDS011;6795;51.232;3.764;2022-12-07T07:00:04;15.87;;;9.80;;
13445;SDS011;6795;51.232;3.764;2022-12-07T07:02:34;19.07;;;11.07;;
13445;SDS011;6795;51.232;3.764;2022-12-07T07:05:02;22.17;;;12.83;;
13445;SDS011;6795;51.232;3.764;2022-12-07T07:07:32;26.93;;;14.67;;
13445;SDS011;6795;51.232;3.764;2022-12-07T07:10:21;22.97;;;13.33;;
13445;SDS011;6795;51.232;3.764;2022-12-07T07:12:49;32.87;;;15.53;;
13445;SDS011;6795;51.232;3.764;2022-12-07T07:15:23;42.13;;;20.13;;
13445;SDS011;6795;51.232;3.764;2022-12-07T07:17:51;44.70;;;20.70;;
13445;SDS011;6795;51.232;3.764;2022-12-07T07:20:20;74.93;;;31.57;;
13445;SDS011;6795;51.232;3.764;2022-12-07T07:22:50;73.50;;;34.90;;
13445;SDS011;6795;51.232;3.764;2022-12-07T07:25:21;27.60;;;15.23;;
13445;SDS011;6795;51.232;3.764;2022-12-07T07:27:49;39.67;;;18.43;;
13445;SDS011;6795;51.232;3.764;2022-12-07T07:30:17;33.03;;;17.80;;
13445;SDS011;6795;51.232;3.764;2022-12-07T07:32:46;35.83;;;16.90;;
13445;SDS011;6795;51.232;3.764;2022-12-07T07:35:14;49.63;;;24.93;;
13445;SDS011;6795;51.232;3.764;2022-12-07T07:37:43;34.53;;;18.03;;
13445;SDS011;6795;51.232;3.764;2022-12-07T07:40:13;31.70;;;16.70;;
13445;SDS011;6795;51.232;3.764;2022-12-07T07:42:41;33.50;;;18.40;;
13445;SDS011;6795;51.232;3.764;2022-12-07T07:45:10;31.13;;;18.67;;
13445;SDS011;6795;51.232;3.764;2022-12-07T07:47:38;40.73;;;22.93;;
13445;SDS011;6795;51.232;3.764;2022-12-07T07:50:07;33.23;;;21.00;;
13445;SDS011;6795;51.232;3.764;2022-12-07T07:52:35;34.10;;;20.63;;
13445;SDS011;6795;51.232;3.764;2022-12-07T07:55:04;36.33;;;20.47;;
13445;SDS011;6795;51.232;3.764;2022-12-07T07:57:36;51.17;;;29.23;;
13445;SDS011;6795;51.232;3.764;2022-12-07T08:00:06;41.03;;;22.53;;
13445;SDS011;6795;51.232;3.764;2022-12-07T08:02:36;33.20;;;22.13;;
13445;SDS011;6795;51.232;3.764;2022-12-07T08:05:05;34.57;;;20.20;;
13445;SDS011;6795;51.232;3.764;2022-12-07T08:07:34;42.67;;;26.70;;
13445;SDS011;6795;51.232;3.764;2022-12-07T08:10:03;47.23;;;27.97;;
13445;SDS011;6795;51.232;3.764;2022-12-07T08:12:36;36.53;;;24.00;;
13445;SDS011;6795;51.232;3.764;2022-12-07T08:15:26;39.73;;;24.70;;
13445;SDS011;6795;51.232;3.764;2022-12-07T08:17:56;34.43;;;23.17;;
13445;SDS011;6795;51.232;3.764;2022-12-07T08:20:24;46.50;;;24.60;;
13445;SDS011;6795;51.232;3.764;2022-12-07T08:22:53;37.33;;;23.70;;
13445;SDS011;6795;51.232;3.764;2022-12-07T08:25:21;37.20;;;24.30;;
13445;SDS011;6795;51.232;3.764;2022-12-07T08:27:54;53.53;;;32.67;;
13445;SDS011;6795;51.232;3.764;2022-12-07T08:30:22;45.37;;;29.67;;
13445;SDS011;6795;51.232;3.764;2022-12-07T08:32:51;59.27;;;35.20;;
13445;SDS011;6795;51.232;3.764;2022-12-07T08:35:20;50.43;;;33.30;;
13445;SDS011;6795;51.232;3.764;2022-12-07T08:37:48;43.83;;;31.07;;
13445;SDS011;6795;51.232;3.764;2022-12-07T08:40:17;37.93;;;25.93;;
13445;SDS011;6795;51.232;3.764;2022-12-07T08:42:49;38.87;;;24.10;;
13445;SDS011;6795;51.232;3.764;2022-12-07T08:45:19;36.83;;;23.70;;
13445;SDS011;6795;51.232;3.764;2022-12-07T08:47:53;31.47;;;21.77;;
13445;SDS011;6795;51.232;3.764;2022-12-07T08:50:24;37.23;;;22.13;;
13445;SDS011;6795;51.232;3.764;2022-12-07T08:52:54;36.73;;;22.43;;
13445;SDS011;6795;51.232;3.764;2022-12-07T08:55:24;34.70;;;21.73;;
13445;SDS011;6795;51.232;3.764;2022-12-07T08:57:55;42.40;;;25.33;;
13445;SDS011;6795;51.232;3.764;2022-12-07T09:00:24;41.17;;;25.87;;
13445;SDS011;6795;51.232;3.764;2022-12-07T09:02:53;36.33;;;22.87;;
13445;SDS011;6795;51.232;3.764;2022-12-07T09:05:23;33.30;;;23.30;;
13445;SDS011;6795;51.232;3.764;2022-12-07T09:07:54;34.40;;;24.73;;
13445;SDS011;6795;51.232;3.764;2022-12-07T09:10:25;33.80;;;22.33;;
13445;SDS011;6795;51.232;3.764;2022-12-07T09:12:55;35.07;;;24.90;;
13445;SDS011;6795;51.232;3.764;2022-12-07T09:15:27;38.97;;;24.67;;
13445;SDS011;6795;51.232;3.764;2022-12-07T09:17:56;35.57;;;24.07;;
13445;SDS011;6795;51.232;3.764;2022-12-07T09:20:24;40.63;;;24.80;;
13445;SDS011;6795;51.232;3.764;2022-12-07T09:22:53;38.43;;;27.60;;
13445;SDS011;6795;51.232;3.764;2022-12-07T09:25:22;40.50;;;24.37;;
13445;SDS011;6795;51.232;3.764;2022-12-07T09:27:56;36.77;;;24.47;;
13445;SDS011;6795;51.232;3.764;2022-12-07T09:30:25;33.83;;;21.63;;
13445;SDS011;6795;51.232;3.764;2022-12-07T09:32:54;34.83;;;20.13;;
13445;SDS011;6795;51.232;3.764;2022-12-07T09:35:24;25.60;;;15.77;;
13445;SDS011;6795;51.232;3.764;2022-12-07T09:37:53;25.83;;;14.63;;
13445;SDS011;6795;51.232;3.764;2022-12-07T09:40:22;37.10;;;18.63;;
13445;SDS011;6795;51.232;3.764;2022-12-07T09:42:52;33.23;;;21.17;;
13445;SDS011;6795;51.232;3.764;2022-12-07T09:45:25;35.43;;;20.40;;
13445;SDS011;6795;51.232;3.764;2022-12-07T09:47:58;27.37;;;14.37;;
13445;SDS011;6795;51.232;3.764;2022-12-07T09:50:28;27.57;;;12.43;;
13445;SDS011;6795;51.232;3.764;2022-12-07T09:53:02;20.40;;;7.63;;
13445;SDS011;6795;51.232;3.764;2022-12-07T09:55:34;19.20;;;6.90;;
13445;SDS011;6795;51.232;3.764;2022-12-07T09:58:05;15.67;;;4.70;;
13445;SDS011;6795;51.232;3.764;2022-12-07T10:00:35;12.67;;;3.90;;
13445;SDS011;6795;51.232;3.764;2022-12-07T10:03:03;15.63;;;4.50;;
13445;SDS011;6795;51.232;3.764;2022-12-07T10:05:32;10.17;;;2.80;;
13445;SDS011;6795;51.232;3.764;2022-12-07T10:08:04;9.93;;;3.10;;
13445;SDS011;6795;51.232;3.764;2022-12-07T10:10:33;8.83;;;1.63;;
13445;SDS011;6795;51.232;3.764;2022-12-07T10:13:05;9.60;;;2.70;;
13445;SDS011;6795;51.232;3.764;2022-12-07T10:15:44;9.10;;;2.73;;
13445;SDS011;6795;51.232;3.764;2022-12-07T10:18:18;18.10;;;4.03;;
13445;SDS011;6795;51.232;3.764;2022-12-07T10:21:00;8.37;;;2.40;;
13445;SDS011;6795;51.232;3.764;2022-12-07T10:23:34;14.23;;;5.27;;
13445;SDS011;6795;51.232;3.764;2022-12-07T10:26:19;12.57;;;3.03;;
13445;SDS011;6795;51.232;3.764;2022-12-07T10:28:53;6.63;;;3.03;;
13445;SDS011;6795;51.232;3.764;2022-12-07T10:31:24;6.87;;;1.83;;
13445;SDS011;6795;51.232;3.764;2022-12-07T10:33:54;17.60;;;4.17;;
13445;SDS011;6795;51.232;3.764;2022-12-07T10:36:24;4.80;;;2.37;;
13445;SDS011;6795;51.232;3.764;2022-12-07T10:38:58;11.17;;;2.80;;
13445;SDS011;6795;51.232;3.764;2022-12-07T10:41:29;9.83;;;3.90;;
13445;SDS011;6795;51.232;3.764;2022-12-07T10:43:58;14.60;;;4.40;;
13445;SDS011;6795;51.232;3.764;2022-12-07T10:49:31;18.40;;;5.27;;
13445;SDS011;6795;51.232;3.764;2022-12-07T10:52:42;10.37;;;3.87;;
13445;SDS011;6795;51.232;3.764;2022-12-07T10:55:23;19.03;;;4.33;;
13445;SDS011;6795;51.232;3.764;2022-12-07T10:58:15;16.90;;;6.80;;
13445;SDS011;6795;51.232;3.764;2022-12-07T11:01:00;14.90;;;6.40;;
13445;SDS011;6795;51.232;3.764;2022-12-07T11:03:47;15.17;;;5.77;;
13445;SDS011;6795;51.232;3.764;2022-12-07T11:06:32;12.37;;;4.33;;
13445;SDS011;6795;51.232;3.764;2022-12-07T11:09:06;11.47;;;4.30;;
13445;SDS011;6795;51.232;3.764;2022-12-07T11:12:15;14.17;;;4.03;;
13445;SDS011;6795;51.232;3.764;2022-12-07T11:14:53;15.50;;;6.17;;
13445;SDS011;6795;51.232;3.764;2022-12-07T11:17:26;13.27;;;4.77;;
13445;SDS011;6795;51.232;3.764;2022-12-07T11:20:04;15.00;;;4.90;;
13445;SDS011;6795;51.232;3.764;2022-12-07T11:22:46;11.87;;;3.17;;
13445;SDS011;6795;51.232;3.764;2022-12-07T11:25:23;13.47;;;2.47;;
13445;SDS011;6795;51.232;3.764;2022-12-07T11:28:11;7.40;;;2.73;;
13445;SDS011;6795;51.232;3.764;2022-12-07T11:30:51;12.00;;;2.50;;
13445;SDS011;6795;51.232;3.764;2022-12-07T11:33:27;8.03;;;2.00;;
13445;SDS011;6795;51.232;3.764;2022-12-07T11:36:04;9.50;;;2.30;;
13445;SDS011;6795;51.232;3.764;2022-12-07T11:38:45;6.33;;;1.10;;
13445;SDS011;6795;51.232;3.764;2022-12-07T11:41:20;11.30;;;1.97;;
13445;SDS011;6795;51.232;3.764;2022-12-07T11:43:56;9.73;;;0.97;;
13445;SDS011;6795;51.232;3.764;2022-12-07T11:46:33;4.57;;;0.63;;
13445;SDS011;6795;51.232;3.764;2022-12-07T11:49:13;3.13;;;0.47;;
13445;SDS011;6795;51.232;3.764;2022-12-07T11:51:53;14.20;;;0.50;;
13445;SDS011;6795;51.232;3.764;2022-12-07T11:54:26;2.50;;;0.40;;
13445;SDS011;6795;51.232;3.764;2022-12-07T11:57:00;4.33;;;0.63;;
13445;SDS011;6795;51.232;3.764;2022-12-07T12:02:12;5.30;;;0.30;;
13445;SDS011;6795;51.232;3.764;2022-12-07T12:04:47;5.10;;;0.47;;
13445;SDS011;6795;51.232;3.764;2022-12-07T12:07:23;7.70;;;0.47;;
13445;SDS011;6795;51.232;3.764;2022-12-07T12:10:37;6.47;;;0.87;;
13445;SDS011;6795;51.232;3.764;2022-12-07T12:13:58;4.80;;;1.13;;
13445;SDS011;6795;51.232;3.764;2022-12-07T12:17:10;1.03;;;0.30;;
13445;SDS011;6795;51.232;3.764;2022-12-07T12:19:59;1.33;;;0.40;;
13445;SDS011;6795;51.232;3.764;2022-12-07T12:22:34;3.13;;;0.37;;
13445;SDS011;6795;51.232;3.764;2022-12-07T12:25:11;4.40;;;0.37;;
13445;SDS011;6795;51.232;3.764;2022-12-07T12:27:47;4.50;;;0.40;;
13445;SDS011;6795;51.232;3.764;2022-12-07T12:30:25;8.40;;;0.40;;
13445;SDS011;6795;51.232;3.764;2022-12-07T12:33:03;4.50;;;0.30;;
13445;SDS011;6795;51.232;3.764;2022-12-07T12:35:41;6.40;;;0.20;;
13445;SDS011;6795;51.232;3.764;2022-12-07T12:38:31;2.47;;;0.30;;
13445;SDS011;6795;51.232;3.764;2022-12-07T12:41:50;4.67;;;0.40;;
13445;SDS011;6795;51.232;3.764;2022-12-07T12:47:43;3.53;;;0.37;;
13445;SDS011;6795;51.232;3.764;2022-12-07T12:54:20;3.27;;;0.40;;
13445;SDS011;6795;51.232;3.764;2022-12-07T12:57:12;3.23;;;0.60;;
13445;SDS011;6795;51.232;3.764;2022-12-07T12:59:55;2.67;;;0.40;;
13445;SDS011;6795;51.232;3.764;2022-12-07T13:13:49;4.13;;;0.43;;
13445;SDS011;6795;51.232;3.764;2022-12-07T13:16:36;13.50;;;0.57;;
13445;SDS011;6795;51.232;3.764;2022-12-07T13:25:29;3.43;;;0.40;;
13445;SDS011;6795;51.232;3.764;2022-12-07T13:28:02;8.60;;;0.40;;
13445;SDS011;6795;51.232;3.764;2022-12-07T13:30:42;6.60;;;0.60;;
13445;SDS011;6795;51.232;3.764;2022-12-07T13:33:15;2.97;;;0.30;;
13445;SDS011;6795;51.232;3.764;2022-12-07T13:35:47;5.37;;;0.50;;
13445;SDS011;6795;51.232;3.764;2022-12-07T13:38:18;5.07;;;0.30;;
13445;SDS011;6795;51.232;3.764;2022-12-07T13:41:12;3.57;;;0.40;;
13445;SDS011;6795;51.232;3.764;2022-12-07T13:43:49;1.03;;;0.10;;
13445;SDS011;6795;51.232;3.764;2022-12-07T13:46:23;4.50;;;0.27;;
13445;SDS011;6795;51.232;3.764;2022-12-07T13:48:55;2.10;;;0.30;;
13445;SDS011;6795;51.232;3.764;2022-12-07T13:51:25;2.57;;;0.10;;
13445;SDS011;6795;51.232;3.764;2022-12-07T13:53:55;5.30;;;0.20;;
13445;SDS011;6795;51.232;3.764;2022-12-07T13:56:28;4.43;;;0.23;;
13445;SDS011;6795;51.232;3.764;2022-12-07T13:59:00;5.83;;;0.30;;
13445;SDS011;6795;51.232;3.764;2022-12-07T14:01:33;1.87;;;0.27;;
13445;SDS011;6795;51.232;3.764;2022-12-07T14:04:18;2.13;;;0.20;;
13445;SDS011;6795;51.232;3.764;2022-12-07T14:06:55;4.37;;;0.20;;
13445;SDS011;6795;51.232;3.764;2022-12-07T14:09:24;5.20;;;0.10;;
13445;SDS011;6795;51.232;3.764;2022-12-07T14:11:55;3.23;;;0.20;;
13445;SDS011;6795;51.232;3.764;2022-12-07T14:14:25;1.40;;;0.40;;
13445;SDS011;6795;51.232;3.764;2022-12-07T14:17:10;1.57;;;0.20;;
13445;SDS011;6795;51.232;3.764;2022-12-07T14:19:47;2.07;;;0.23;;
13445;SDS011;6795;51.232;3.764;2022-12-07T14:22:22;1.77;;;0.30;;
13445;SDS011;6795;51.232;3.764;2022-12-07T14:24:58;7.50;;;0.20;;
13445;SDS011;6795;51.232;3.764;2022-12-07T14:27:31;4.33;;;0.20;;
13445;SDS011;6795;51.232;3.764;2022-12-07T14:30:02;4.57;;;0.23;;
13445;SDS011;6795;51.232;3.764;2022-12-07T14:32:34;6.93;;;0.40;;
13445;SDS011;6795;51.232;3.764;2022-12-07T14:35:08;2.30;;;0.27;;
13445;SDS011;6795;51.232;3.764;2022-12-07T14:37:38;3.70;;;0.60;;
13445;SDS011;6795;51.232;3.764;2022-12-07T14:40:11;7.83;;;0.63;;
13445;SDS011;6795;51.232;3.764;2022-12-07T14:42:40;3.50;;;0.60;;
13445;SDS011;6795;51.232;3.764;2022-12-07T14:45:12;5.53;;;0.30;;
13445;SDS011;6795;51.232;3.764;2022-12-07T14:47:45;4.07;;;0.30;;
13445;SDS011;6795;51.232;3.764;2022-12-07T14:50:35;9.73;;;3.53;;
13445;SDS011;6795;51.232;3.764;2022-12-07T14:53:27;10.37;;;3.70;;
13445;SDS011;6795;51.232;3.764;2022-12-07T14:55:58;2.13;;;1.30;;
13445;SDS011;6795;51.232;3.764;2022-12-07T14:58:27;7.63;;;1.57;;
13445;SDS011;6795;51.232;3.764;2022-12-07T15:00:56;8.00;;;3.43;;
13445;SDS011;6795;51.232;3.764;2022-12-07T15:03:25;8.27;;;1.87;;
13445;SDS011;6795;51.232;3.764;2022-12-07T15:05:54;2.77;;;1.03;;
13445;SDS011;6795;51.232;3.764;2022-12-07T15:08:22;4.97;;;1.60;;
13445;SDS011;6795;51.232;3.764;2022-12-07T15:10:51;5.23;;;1.50;;
13445;SDS011;6795;51.232;3.764;2022-12-07T15:13:19;4.37;;;1.83;;
13445;SDS011;6795;51.232;3.764;2022-12-07T15:19:01;9.83;;;2.33;;
13445;SDS011;6795;51.232;3.764;2022-12-07T15:21:50;5.90;;;3.97;;
13445;SDS011;6795;51.232;3.764;2022-12-07T15:24:19;11.37;;;3.43;;
13445;SDS011;6795;51.232;3.764;2022-12-07T15:26:49;6.67;;;1.90;;
13445;SDS011;6795;51.232;3.764;2022-12-07T15:29:18;5.50;;;2.47;;
13445;SDS011;6795;51.232;3.764;2022-12-07T15:31:49;3.23;;;2.37;;
13445;SDS011;6795;51.232;3.764;2022-12-07T15:34:25;8.33;;;3.00;;
13445;SDS011;6795;51.232;3.764;2022-12-07T15:37:04;7.40;;;3.10;;
13445;SDS011;6795;51.232;3.764;2022-12-07T15:39:32;10.97;;;4.03;;
13445;SDS011;6795;51.232;3.764;2022-12-07T15:42:01;9.20;;;3.90;;
13445;SDS011;6795;51.232;3.764;2022-12-07T15:44:29;4.57;;;2.77;;
13445;SDS011;6795;51.232;3.764;2022-12-07T15:47:51;5.53;;;0.67;;
13445;SDS011;6795;51.232;3.764;2022-12-07T15:50:42;6.68;;;0.80;;
13445;SDS011;6795;51.232;3.764;2022-12-07T15:53:11;11.90;;;2.33;;
13445;SDS011;6795;51.232;3.764;2022-12-07T15:55:39;6.30;;;1.07;;
13445;SDS011;6795;51.232;3.764;2022-12-07T15:58:07;5.63;;;0.60;;
13445;SDS011;6795;51.232;3.764;2022-12-07T16:00:36;4.47;;;0.50;;
13445;SDS011;6795;51.232;3.764;2022-12-07T16:03:04;4.03;;;0.80;;